sensor_id;sensor_type;location;lat;lon;timestamp;P1;durP1;ratioP1;P2;durP2;ratioP2
16189;SDS011;41754;51.498;7.540;2023-06-22T00:01:22;4.50;;;4.10;;
16189;SDS011;41754;51.498;7.540;2023-06-22T00:03:50;5.65;;;4.30;;
16189;SDS011;41754;51.498;7.540;2023-06-22T00:06:18;5.82;;;4.57;;
16189;SDS011;41754;51.498;7.540;2023-06-22T00:08:46;5.68;;;5.18;;
16189;SDS011;41754;51.498;7.540;2023-06-22T00:11:14;5.25;;;4.75;;
16189;SDS011;41754;51.498;7.540;2023-06-22T00:13:42;6.85;;;5.68;;
16189;SDS011;41754;51.498;7.540;2023-06-22T00:16:10;6.72;;;5.63;;
16189;SDS011;41754;51.498;7.540;2023-06-22T00:18:39;5.50;;;5.00;;
16189;SDS011;41754;51.498;7.540;2023-06-22T00:21:13;6.13;;;4.80;;
16189;SDS011;41754;51.498;7.540;2023-06-22T00:23:41;6.82;;;5.15;;
16189;SDS011;41754;51.498;7.540;2023-06-22T00:26:09;6.43;;;5.28;;
16189;SDS011;41754;51.498;7.540;2023-06-22T00:28:37;6.22;;;5.10;;
16189;SDS011;41754;51.498;7.540;2023-06-22T00:31:05;8.98;;;5.65;;
16189;SDS011;41754;51.498;7.540;2023-06-22T00:33:33;6.53;;;5.75;;
16189;SDS011;41754;51.498;7.540;2023-06-22T00:36:06;7.25;;;6.00;;
16189;SDS011;41754;51.498;7.540;2023-06-22T00:38:36;6.97;;;6.28;;
16189;SDS011;41754;51.498;7.540;2023-06-22T00:41:07;6.70;;;6.10;;
16189;SDS011;41754;51.498;7.540;2023-06-22T00:43:35;8.05;;;5.60;;
16189;SDS011;41754;51.498;7.540;2023-06-22T00:46:03;7.13;;;6.47;;
16189;SDS011;41754;51.498;7.540;2023-06-22T00:48:31;6.40;;;5.80;;
16189;SDS011;41754;51.498;7.540;2023-06-22T00:50:59;7.88;;;5.93;;
16189;SDS011;41754;51.498;7.540;2023-06-22T00:53:28;6.47;;;5.80;;
16189;SDS011;41754;51.498;7.540;2023-06-22T00:55:59;7.68;;;6.38;;
16189;SDS011;41754;51.498;7.540;2023-06-22T00:58:29;6.65;;;6.03;;
16189;SDS011;41754;51.498;7.540;2023-06-22T01:00:57;6.65;;;6.05;;
16189;SDS011;41754;51.498;7.540;2023-06-22T01:03:26;6.78;;;5.78;;
16189;SDS011;41754;51.498;7.540;2023-06-22T01:05:55;5.88;;;5.38;;
16189;SDS011;41754;51.498;7.540;2023-06-22T01:08:31;6.15;;;5.53;;
16189;SDS011;41754;51.498;7.540;2023-06-22T01:11:08;6.72;;;5.47;;
16189;SDS011;41754;51.498;7.540;2023-06-22T01:13:40;6.07;;;5.57;;
16189;SDS011;41754;51.498;7.540;2023-06-22T01:16:13;7.18;;;5.50;;
16189;SDS011;41754;51.498;7.540;2023-06-22T01:18:46;6.10;;;5.53;;
16189;SDS011;41754;51.498;7.540;2023-06-22T01:21:18;7.43;;;5.65;;
16189;SDS011;41754;51.498;7.540;2023-06-22T01:23:51;7.15;;;5.78;;
16189;SDS011;41754;51.498;7.540;2023-06-22T01:26:35;6.57;;;5.82;;
16189;SDS011;41754;51.498;7.540;2023-06-22T01:29:08;6.93;;;6.25;;
16189;SDS011;41754;51.498;7.540;2023-06-22T01:31:40;6.88;;;6.07;;
16189;SDS011;41754;51.498;7.540;2023-06-22T01:34:11;5.32;;;4.82;;
16189;SDS011;41754;51.498;7.540;2023-06-22T01:36:40;9.93;;;5.47;;
16189;SDS011;41754;51.498;7.540;2023-06-22T01:39:08;6.63;;;5.70;;
16189;SDS011;41754;51.498;7.540;2023-06-22T01:41:37;6.90;;;6.05;;
16189;SDS011;41754;51.498;7.540;2023-06-22T01:44:07;6.22;;;5.60;;
16189;SDS011;41754;51.498;7.540;2023-06-22T01:46:36;6.97;;;6.35;;
16189;SDS011;41754;51.498;7.540;2023-06-22T01:49:06;8.13;;;6.68;;
16189;SDS011;41754;51.498;7.540;2023-06-22T01:51:35;8.43;;;6.57;;
16189;SDS011;41754;51.498;7.540;2023-06-22T01:54:05;7.57;;;6.88;;
16189;SDS011;41754;51.498;7.540;2023-06-22T01:56:33;9.20;;;7.22;;
16189;SDS011;41754;51.498;7.540;2023-06-22T01:59:04;7.50;;;6.80;;
16189;SDS011;41754;51.498;7.540;2023-06-22T02:01:41;6.97;;;6.28;;
16189;SDS011;41754;51.498;7.540;2023-06-22T02:04:12;8.20;;;7.25;;
16189;SDS011;41754;51.498;7.540;2023-06-22T02:06:45;8.38;;;7.20;;
16189;SDS011;41754;51.498;7.540;2023-06-22T02:09:16;7.97;;;7.18;;
16189;SDS011;41754;51.498;7.540;2023-06-22T02:11:47;7.78;;;7.07;;
16189;SDS011;41754;51.498;7.540;2023-06-22T02:14:18;7.30;;;6.60;;
16189;SDS011;41754;51.498;7.540;2023-06-22T02:16:48;6.60;;;5.90;;
16189;SDS011;41754;51.498;7.540;2023-06-22T02:19:22;7.00;;;6.30;;
16189;SDS011;41754;51.498;7.540;2023-06-22T02:21:52;7.57;;;6.78;;
16189;SDS011;41754;51.498;7.540;2023-06-22T02:24:19;7.40;;;6.38;;
16189;SDS011;41754;51.498;7.540;2023-06-22T02:26:50;7.05;;;6.30;;
16189;SDS011;41754;51.498;7.540;2023-06-22T02:29:17;7.55;;;6.07;;
16189;SDS011;41754;51.498;7.540;2023-06-22T02:31:45;8.50;;;6.25;;
16189;SDS011;41754;51.498;7.540;2023-06-22T02:34:15;6.40;;;5.80;;
16189;SDS011;41754;51.498;7.540;2023-06-22T02:36:45;6.95;;;5.60;;
16189;SDS011;41754;51.498;7.540;2023-06-22T02:39:18;5.90;;;5.38;;
16189;SDS011;41754;51.498;7.540;2023-06-22T02:41:47;7.40;;;6.07;;
16189;SDS011;41754;51.498;7.540;2023-06-22T02:44:14;7.40;;;6.70;;
16189;SDS011;41754;51.498;7.540;2023-06-22T02:46:42;6.93;;;6.22;;
16189;SDS011;41754;51.498;7.540;2023-06-22T02:49:12;6.40;;;5.80;;
16189;SDS011;41754;51.498;7.540;2023-06-22T02:51:42;8.73;;;7.57;;
16189;SDS011;41754;51.498;7.540;2023-06-22T02:54:13;8.73;;;6.22;;
16189;SDS011;41754;51.498;7.540;2023-06-22T02:56:41;7.63;;;6.80;;
16189;SDS011;41754;51.498;7.540;2023-06-22T02:59:11;8.60;;;7.25;;
16189;SDS011;41754;51.498;7.540;2023-06-22T03:01:39;8.25;;;7.47;;
16189;SDS011;41754;51.498;7.540;2023-06-22T03:04:25;9.43;;;7.47;;
16189;SDS011;41754;51.498;7.540;2023-06-22T03:06:55;8.20;;;7.40;;
16189;SDS011;41754;51.498;7.540;2023-06-22T03:09:23;8.30;;;7.50;;
16189;SDS011;41754;51.498;7.540;2023-06-22T03:11:51;8.20;;;7.38;;
16189;SDS011;41754;51.498;7.540;2023-06-22T03:14:19;8.38;;;7.57;;
16189;SDS011;41754;51.498;7.540;2023-06-22T03:16:47;7.78;;;7.00;;
16189;SDS011;41754;51.498;7.540;2023-06-22T03:19:17;8.75;;;7.93;;
16189;SDS011;41754;51.498;7.540;2023-06-22T03:21:46;8.40;;;7.60;;
16189;SDS011;41754;51.498;7.540;2023-06-22T03:24:15;9.40;;;7.80;;
16189;SDS011;41754;51.498;7.540;2023-06-22T03:26:42;10.93;;;8.18;;
16189;SDS011;41754;51.498;7.540;2023-06-22T03:29:13;8.52;;;7.63;;
16189;SDS011;41754;51.498;7.540;2023-06-22T03:31:41;9.85;;;8.85;;
16189;SDS011;41754;51.498;7.540;2023-06-22T03:34:09;9.27;;;8.38;;
16189;SDS011;41754;51.498;7.540;2023-06-22T03:36:37;9.20;;;8.40;;
16189;SDS011;41754;51.498;7.540;2023-06-22T03:39:05;9.63;;;8.68;;
16189;SDS011;41754;51.498;7.540;2023-06-22T03:41:34;9.98;;;8.98;;
16189;SDS011;41754;51.498;7.540;2023-06-22T03:44:02;9.95;;;8.90;;
16189;SDS011;41754;51.498;7.540;2023-06-22T03:46:30;9.45;;;8.50;;
16189;SDS011;41754;51.498;7.540;2023-06-22T03:48:58;9.23;;;8.43;;
16189;SDS011;41754;51.498;7.540;2023-06-22T03:51:28;10.23;;;8.07;;
16189;SDS011;41754;51.498;7.540;2023-06-22T03:53:56;9.63;;;8.60;;
16189;SDS011;41754;51.498;7.540;2023-06-22T03:56:24;10.57;;;9.65;;
16189;SDS011;41754;51.498;7.540;2023-06-22T03:58:53;10.50;;;9.50;;
16189;SDS011;41754;51.498;7.540;2023-06-22T04:01:21;10.80;;;9.68;;
16189;SDS011;41754;51.498;7.540;2023-06-22T04:03:49;10.70;;;9.57;;
16189;SDS011;41754;51.498;7.540;2023-06-22T04:06:17;10.57;;;9.48;;
16189;SDS011;41754;51.498;7.540;2023-06-22T04:08:45;10.27;;;9.27;;
16189;SDS011;41754;51.498;7.540;2023-06-22T04:11:14;11.55;;;10.32;;
16189;SDS011;41754;51.498;7.540;2023-06-22T04:13:42;10.68;;;9.77;;
16189;SDS011;41754;51.498;7.540;2023-06-22T04:16:11;11.05;;;10.00;;
16189;SDS011;41754;51.498;7.540;2023-06-22T04:18:39;11.00;;;10.00;;
16189;SDS011;41754;51.498;7.540;2023-06-22T04:21:08;10.68;;;9.73;;
16189;SDS011;41754;51.498;7.540;2023-06-22T04:23:37;10.65;;;9.73;;
16189;SDS011;41754;51.498;7.540;2023-06-22T04:26:05;11.20;;;10.13;;
16189;SDS011;41754;51.498;7.540;2023-06-22T04:28:33;11.15;;;10.15;;
16189;SDS011;41754;51.498;7.540;2023-06-22T04:31:01;15.32;;;10.77;;
16189;SDS011;41754;51.498;7.540;2023-06-22T04:33:30;12.13;;;11.02;;
16189;SDS011;41754;51.498;7.540;2023-06-22T04:35:58;11.90;;;10.75;;
16189;SDS011;41754;51.498;7.540;2023-06-22T04:38:27;12.23;;;10.95;;
16189;SDS011;41754;51.498;7.540;2023-06-22T04:40:55;11.85;;;10.80;;
16189;SDS011;41754;51.498;7.540;2023-06-22T04:43:23;12.10;;;11.07;;
16189;SDS011;41754;51.498;7.540;2023-06-22T04:45:50;12.35;;;11.25;;
16189;SDS011;41754;51.498;7.540;2023-06-22T04:48:19;12.32;;;11.05;;
16189;SDS011;41754;51.498;7.540;2023-06-22T04:50:48;12.75;;;11.23;;
16189;SDS011;41754;51.498;7.540;2023-06-22T04:53:16;12.20;;;11.07;;
16189;SDS011;41754;51.498;7.540;2023-06-22T04:55:44;14.55;;;11.52;;
16189;SDS011;41754;51.498;7.540;2023-06-22T04:58:12;12.43;;;11.13;;
16189;SDS011;41754;51.498;7.540;2023-06-22T05:00:40;12.13;;;10.93;;
16189;SDS011;41754;51.498;7.540;2023-06-22T05:03:11;12.48;;;11.27;;
16189;SDS011;41754;51.498;7.540;2023-06-22T05:05:46;12.18;;;11.05;;
16189;SDS011;41754;51.498;7.540;2023-06-22T05:08:15;11.95;;;10.80;;
16189;SDS011;41754;51.498;7.540;2023-06-22T05:10:44;11.88;;;10.23;;
16189;SDS011;41754;51.498;7.540;2023-06-22T05:13:29;11.73;;;10.73;;
16189;SDS011;41754;51.498;7.540;2023-06-22T05:15:57;12.32;;;11.18;;
16189;SDS011;41754;51.498;7.540;2023-06-22T05:18:28;12.85;;;10.68;;
16189;SDS011;41754;51.498;7.540;2023-06-22T05:20:57;15.52;;;12.00;;
16189;SDS011;41754;51.498;7.540;2023-06-22T05:23:27;12.55;;;11.25;;
16189;SDS011;41754;51.498;7.540;2023-06-22T05:25:55;12.05;;;10.95;;
16189;SDS011;41754;51.498;7.540;2023-06-22T05:28:24;10.82;;;9.77;;
16189;SDS011;41754;51.498;7.540;2023-06-22T05:30:52;11.40;;;10.23;;
16189;SDS011;41754;51.498;7.540;2023-06-22T05:33:20;10.50;;;9.57;;
16189;SDS011;41754;51.498;7.540;2023-06-22T05:35:48;11.25;;;10.15;;
16189;SDS011;41754;51.498;7.540;2023-06-22T05:38:16;10.93;;;9.93;;
16189;SDS011;41754;51.498;7.540;2023-06-22T05:40:45;11.20;;;10.02;;
16189;SDS011;41754;51.498;7.540;2023-06-22T05:43:13;11.45;;;10.45;;
16189;SDS011;41754;51.498;7.540;2023-06-22T05:45:41;11.50;;;9.82;;
16189;SDS011;41754;51.498;7.540;2023-06-22T05:48:09;12.75;;;11.02;;
16189;SDS011;41754;51.498;7.540;2023-06-22T05:50:36;12.73;;;11.55;;
16189;SDS011;41754;51.498;7.540;2023-06-22T05:53:04;12.23;;;11.10;;
16189;SDS011;41754;51.498;7.540;2023-06-22T05:55:33;12.68;;;11.52;;
16189;SDS011;41754;51.498;7.540;2023-06-22T05:58:02;14.15;;;12.73;;
16189;SDS011;41754;51.498;7.540;2023-06-22T06:00:30;13.65;;;12.25;;
16189;SDS011;41754;51.498;7.540;2023-06-22T06:02:59;13.70;;;12.30;;
16189;SDS011;41754;51.498;7.540;2023-06-22T06:05:30;15.02;;;12.43;;
16189;SDS011;41754;51.498;7.540;2023-06-22T06:07:57;13.98;;;12.73;;
16189;SDS011;41754;51.498;7.540;2023-06-22T06:10:25;14.32;;;13.02;;
16189;SDS011;41754;51.498;7.540;2023-06-22T06:12:54;15.25;;;13.85;;
16189;SDS011;41754;51.498;7.540;2023-06-22T06:15:23;15.00;;;13.50;;
16189;SDS011;41754;51.498;7.540;2023-06-22T06:17:52;16.92;;;15.23;;
16189;SDS011;41754;51.498;7.540;2023-06-22T06:20:21;18.27;;;14.05;;
16189;SDS011;41754;51.498;7.540;2023-06-22T06:22:50;15.50;;;13.95;;
16189;SDS011;41754;51.498;7.540;2023-06-22T06:25:18;15.63;;;14.07;;
16189;SDS011;41754;51.498;7.540;2023-06-22T06:27:48;15.65;;;14.15;;
16189;SDS011;41754;51.498;7.540;2023-06-22T06:30:17;16.95;;;15.27;;
16189;SDS011;41754;51.498;7.540;2023-06-22T06:32:47;16.13;;;14.48;;
16189;SDS011;41754;51.498;7.540;2023-06-22T06:35:15;16.55;;;15.05;;
16189;SDS011;41754;51.498;7.540;2023-06-22T06:37:44;15.57;;;14.18;;
16189;SDS011;41754;51.498;7.540;2023-06-22T06:40:14;17.10;;;15.43;;
16189;SDS011;41754;51.498;7.540;2023-06-22T06:42:43;17.35;;;15.65;;
16189;SDS011;41754;51.498;7.540;2023-06-22T06:45:12;16.90;;;15.50;;
16189;SDS011;41754;51.498;7.540;2023-06-22T06:47:42;16.65;;;15.15;;
16189;SDS011;41754;51.498;7.540;2023-06-22T06:50:12;16.65;;;15.10;;
16189;SDS011;41754;51.498;7.540;2023-06-22T06:52:39;17.25;;;15.52;;
16189;SDS011;41754;51.498;7.540;2023-06-22T06:55:08;16.20;;;14.65;;
16189;SDS011;41754;51.498;7.540;2023-06-22T06:57:39;16.27;;;14.80;;
16189;SDS011;41754;51.498;7.540;2023-06-22T07:00:08;17.48;;;15.80;;
16189;SDS011;41754;51.498;7.540;2023-06-22T07:02:38;16.85;;;15.27;;
16189;SDS011;41754;51.498;7.540;2023-06-22T07:05:07;15.93;;;14.48;;
16189;SDS011;41754;51.498;7.540;2023-06-22T07:07:37;16.80;;;15.20;;
16189;SDS011;41754;51.498;7.540;2023-06-22T07:10:05;15.80;;;14.40;;
16189;SDS011;41754;51.498;7.540;2023-06-22T07:12:34;15.48;;;14.18;;
16189;SDS011;41754;51.498;7.540;2023-06-22T07:15:02;16.27;;;14.57;;
16189;SDS011;41754;51.498;7.540;2023-06-22T07:17:31;15.98;;;14.38;;
16189;SDS011;41754;51.498;7.540;2023-06-22T07:19:59;15.57;;;14.20;;
16189;SDS011;41754;51.498;7.540;2023-06-22T07:22:27;15.98;;;14.55;;
16189;SDS011;41754;51.498;7.540;2023-06-22T07:24:57;16.50;;;15.10;;
16189;SDS011;41754;51.498;7.540;2023-06-22T07:27:25;16.13;;;14.82;;
16189;SDS011;41754;51.498;7.540;2023-06-22T07:29:53;16.67;;;15.13;;
16189;SDS011;41754;51.498;7.540;2023-06-22T07:32:21;16.45;;;14.77;;
16189;SDS011;41754;51.498;7.540;2023-06-22T07:34:49;16.42;;;14.93;;
16189;SDS011;41754;51.498;7.540;2023-06-22T07:37:17;16.75;;;15.35;;
16189;SDS011;41754;51.498;7.540;2023-06-22T07:39:45;16.23;;;14.27;;
16189;SDS011;41754;51.498;7.540;2023-06-22T07:42:14;16.27;;;14.48;;
16189;SDS011;41754;51.498;7.540;2023-06-22T07:44:45;17.25;;;15.65;;
16189;SDS011;41754;51.498;7.540;2023-06-22T07:47:12;17.50;;;15.73;;
16189;SDS011;41754;51.498;7.540;2023-06-22T07:49:40;17.15;;;15.45;;
16189;SDS011;41754;51.498;7.540;2023-06-22T07:52:08;17.63;;;15.80;;
16189;SDS011;41754;51.498;7.540;2023-06-22T07:54:37;16.88;;;15.32;;
16189;SDS011;41754;51.498;7.540;2023-06-22T07:57:05;18.75;;;16.20;;
16189;SDS011;41754;51.498;7.540;2023-06-22T07:59:34;17.38;;;15.68;;
16189;SDS011;41754;51.498;7.540;2023-06-22T08:02:03;16.70;;;15.23;;
16189;SDS011;41754;51.498;7.540;2023-06-22T08:04:31;15.63;;;14.27;;
16189;SDS011;41754;51.498;7.540;2023-06-22T08:07:01;16.65;;;15.27;;
16189;SDS011;41754;51.498;7.540;2023-06-22T08:09:30;16.92;;;15.55;;
16189;SDS011;41754;51.498;7.540;2023-06-22T08:11:58;17.60;;;15.90;;
16189;SDS011;41754;51.498;7.540;2023-06-22T08:14:26;17.95;;;16.15;;
16189;SDS011;41754;51.498;7.540;2023-06-22T08:16:56;17.23;;;15.73;;
16189;SDS011;41754;51.498;7.540;2023-06-22T08:19:24;17.40;;;16.00;;
16189;SDS011;41754;51.498;7.540;2023-06-22T08:21:52;18.23;;;16.30;;
16189;SDS011;41754;51.498;7.540;2023-06-22T08:24:20;17.95;;;16.20;;
16189;SDS011;41754;51.498;7.540;2023-06-22T08:26:49;18.83;;;16.15;;
16189;SDS011;41754;51.498;7.540;2023-06-22T08:29:18;17.70;;;16.00;;
16189;SDS011;41754;51.498;7.540;2023-06-22T08:31:46;17.20;;;15.65;;
16189;SDS011;41754;51.498;7.540;2023-06-22T08:34:15;17.00;;;15.50;;
16189;SDS011;41754;51.498;7.540;2023-06-22T08:36:44;16.95;;;15.45;;
16189;SDS011;41754;51.498;7.540;2023-06-22T08:39:18;17.80;;;16.08;;
16189;SDS011;41754;51.498;7.540;2023-06-22T08:41:46;21.10;;;19.00;;
16189;SDS011;41754;51.498;7.540;2023-06-22T08:44:15;18.15;;;16.55;;
16189;SDS011;41754;51.498;7.540;2023-06-22T08:46:45;16.83;;;15.23;;
16189;SDS011;41754;51.498;7.540;2023-06-22T08:49:18;17.88;;;16.27;;
16189;SDS011;41754;51.498;7.540;2023-06-22T08:51:46;15.13;;;13.82;;
16189;SDS011;41754;51.498;7.540;2023-06-22T08:54:15;17.25;;;15.65;;
16189;SDS011;41754;51.498;7.540;2023-06-22T08:56:43;17.15;;;15.55;;
16189;SDS011;41754;51.498;7.540;2023-06-22T08:59:11;16.02;;;14.63;;
16189;SDS011;41754;51.498;7.540;2023-06-22T09:01:39;16.55;;;15.05;;
16189;SDS011;41754;51.498;7.540;2023-06-22T09:04:07;16.95;;;15.45;;
16189;SDS011;41754;51.498;7.540;2023-06-22T09:06:37;16.17;;;14.75;;
16189;SDS011;41754;51.498;7.540;2023-06-22T09:09:11;16.17;;;14.55;;
16189;SDS011;41754;51.498;7.540;2023-06-22T09:11:39;14.80;;;13.57;;
16189;SDS011;41754;51.498;7.540;2023-06-22T09:14:07;13.63;;;12.52;;
16189;SDS011;41754;51.498;7.540;2023-06-22T09:16:36;14.75;;;13.45;;
16189;SDS011;41754;51.498;7.540;2023-06-22T09:19:04;13.52;;;12.43;;
16189;SDS011;41754;51.498;7.540;2023-06-22T09:21:32;12.00;;;11.00;;
16189;SDS011;41754;51.498;7.540;2023-06-22T09:24:01;12.68;;;11.38;;
16189;SDS011;41754;51.498;7.540;2023-06-22T09:26:30;11.55;;;10.55;;
16189;SDS011;41754;51.498;7.540;2023-06-22T09:28:57;12.98;;;11.77;;
16189;SDS011;41754;51.498;7.540;2023-06-22T09:31:25;11.55;;;10.63;;
16189;SDS011;41754;51.498;7.540;2023-06-22T09:33:53;12.93;;;11.82;;
16189;SDS011;41754;51.498;7.540;2023-06-22T09:36:21;10.55;;;9.70;;
16189;SDS011;41754;51.498;7.540;2023-06-22T09:38:49;13.15;;;11.95;;
16189;SDS011;41754;51.498;7.540;2023-06-22T09:41:26;12.25;;;11.20;;
16189;SDS011;41754;51.498;7.540;2023-06-22T09:43:54;12.38;;;11.27;;
16189;SDS011;41754;51.498;7.540;2023-06-22T09:46:22;13.30;;;12.02;;
16189;SDS011;41754;51.498;7.540;2023-06-22T09:48:51;12.73;;;11.57;;
16189;SDS011;41754;51.498;7.540;2023-06-22T09:51:19;12.18;;;11.27;;
16189;SDS011;41754;51.498;7.540;2023-06-22T09:53:48;13.10;;;12.00;;
16189;SDS011;41754;51.498;7.540;2023-06-22T09:56:16;13.10;;;11.90;;
16189;SDS011;41754;51.498;7.540;2023-06-22T09:58:45;13.48;;;12.23;;
16189;SDS011;41754;51.498;7.540;2023-06-22T10:01:18;12.35;;;11.45;;
16189;SDS011;41754;51.498;7.540;2023-06-22T10:03:46;12.02;;;10.88;;
16189;SDS011;41754;51.498;7.540;2023-06-22T10:06:15;11.00;;;9.90;;
16189;SDS011;41754;51.498;7.540;2023-06-22T10:08:42;11.63;;;10.43;;
16189;SDS011;41754;51.498;7.540;2023-06-22T10:11:10;12.52;;;10.82;;
16189;SDS011;41754;51.498;7.540;2023-06-22T10:13:38;11.75;;;10.65;;
16189;SDS011;41754;51.498;7.540;2023-06-22T10:16:07;12.82;;;11.63;;
16189;SDS011;41754;51.498;7.540;2023-06-22T10:18:35;11.10;;;10.23;;
16189;SDS011;41754;51.498;7.540;2023-06-22T10:21:13;11.02;;;10.13;;
16189;SDS011;41754;51.498;7.540;2023-06-22T10:23:42;11.55;;;10.57;;
16189;SDS011;41754;51.498;7.540;2023-06-22T10:26:09;11.07;;;10.07;;
16189;SDS011;41754;51.498;7.540;2023-06-22T10:28:37;12.90;;;11.80;;
16189;SDS011;41754;51.498;7.540;2023-06-22T10:31:05;13.13;;;12.02;;
16189;SDS011;41754;51.498;7.540;2023-06-22T10:33:34;11.27;;;10.18;;
16189;SDS011;41754;51.498;7.540;2023-06-22T10:36:02;10.88;;;9.98;;
16189;SDS011;41754;51.498;7.540;2023-06-22T10:38:30;10.77;;;9.80;;
16189;SDS011;41754;51.498;7.540;2023-06-22T10:40:58;10.10;;;9.15;;
16189;SDS011;41754;51.498;7.540;2023-06-22T10:43:26;9.63;;;8.82;;
16189;SDS011;41754;51.498;7.540;2023-06-22T10:45:54;10.95;;;10.00;;
16189;SDS011;41754;51.498;7.540;2023-06-22T10:48:22;9.98;;;9.18;;
16189;SDS011;41754;51.498;7.540;2023-06-22T10:50:51;9.25;;;8.45;;
16189;SDS011;41754;51.498;7.540;2023-06-22T10:53:19;9.52;;;8.60;;
16189;SDS011;41754;51.498;7.540;2023-06-22T10:55:47;9.20;;;8.40;;
16189;SDS011;41754;51.498;7.540;2023-06-22T10:58:22;9.60;;;8.77;;
16189;SDS011;41754;51.498;7.540;2023-06-22T11:00:51;9.15;;;8.35;;
16189;SDS011;41754;51.498;7.540;2023-06-22T11:03:18;8.05;;;7.43;;
16189;SDS011;41754;51.498;7.540;2023-06-22T11:05:46;7.60;;;6.90;;
16189;SDS011;41754;51.498;7.540;2023-06-22T11:08:16;16.80;;;8.57;;
16189;SDS011;41754;51.498;7.540;2023-06-22T11:10:43;8.57;;;7.78;;
16189;SDS011;41754;51.498;7.540;2023-06-22T11:13:11;9.02;;;8.35;;
16189;SDS011;41754;51.498;7.540;2023-06-22T11:15:39;8.20;;;7.50;;
16189;SDS011;41754;51.498;7.540;2023-06-22T11:18:07;8.93;;;7.97;;
16189;SDS011;41754;51.498;7.540;2023-06-22T11:20:35;8.65;;;7.93;;
16189;SDS011;41754;51.498;7.540;2023-06-22T11:23:05;8.38;;;7.63;;
16189;SDS011;41754;51.498;7.540;2023-06-22T11:25:34;8.93;;;8.13;;
16189;SDS011;41754;51.498;7.540;2023-06-22T11:28:04;10.55;;;9.48;;
16189;SDS011;41754;51.498;7.540;2023-06-22T11:30:32;10.35;;;9.27;;
16189;SDS011;41754;51.498;7.540;2023-06-22T11:33:00;14.75;;;10.93;;
16189;SDS011;41754;51.498;7.540;2023-06-22T11:35:28;11.60;;;10.60;;
16189;SDS011;41754;51.498;7.540;2023-06-22T11:37:56;14.02;;;12.60;;
16189;SDS011;41754;51.498;7.540;2023-06-22T11:40:24;13.15;;;11.95;;
16189;SDS011;41754;51.498;7.540;2023-06-22T11:42:54;15.15;;;13.75;;
16189;SDS011;41754;51.498;7.540;2023-06-22T11:45:22;15.45;;;14.05;;
16189;SDS011;41754;51.498;7.540;2023-06-22T11:47:50;15.25;;;13.90;;
16189;SDS011;41754;51.498;7.540;2023-06-22T11:50:18;16.08;;;14.75;;
16189;SDS011;41754;51.498;7.540;2023-06-22T11:52:46;16.23;;;14.50;;
16189;SDS011;41754;51.498;7.540;2023-06-22T11:55:13;16.85;;;15.25;;
16189;SDS011;41754;51.498;7.540;2023-06-22T11:57:52;17.83;;;16.17;;
16189;SDS011;41754;51.498;7.540;2023-06-22T12:00:22;17.20;;;15.88;;
16189;SDS011;41754;51.498;7.540;2023-06-22T12:02:55;17.65;;;16.10;;
16189;SDS011;41754;51.498;7.540;2023-06-22T12:05:26;19.02;;;17.38;;
16189;SDS011;41754;51.498;7.540;2023-06-22T12:07:54;18.85;;;17.05;;
16189;SDS011;41754;51.498;7.540;2023-06-22T12:10:22;18.75;;;17.02;;
16189;SDS011;41754;51.498;7.540;2023-06-22T12:12:51;19.75;;;17.67;;
16189;SDS011;41754;51.498;7.540;2023-06-22T12:15:18;19.58;;;17.80;;
16189;SDS011;41754;51.498;7.540;2023-06-22T12:17:48;20.42;;;18.55;;
16189;SDS011;41754;51.498;7.540;2023-06-22T12:20:16;19.88;;;18.08;;
16189;SDS011;41754;51.498;7.540;2023-06-22T12:22:44;20.35;;;18.75;;
16189;SDS011;41754;51.498;7.540;2023-06-22T12:25:12;20.58;;;18.73;;
16189;SDS011;41754;51.498;7.540;2023-06-22T12:27:40;20.65;;;18.70;;
16189;SDS011;41754;51.498;7.540;2023-06-22T12:30:08;20.90;;;18.88;;
16189;SDS011;41754;51.498;7.540;2023-06-22T12:32:36;20.17;;;18.42;;
16189;SDS011;41754;51.498;7.540;2023-06-22T12:35:06;19.38;;;17.45;;
16189;SDS011;41754;51.498;7.540;2023-06-22T12:37:40;19.55;;;17.83;;
16189;SDS011;41754;51.498;7.540;2023-06-22T12:40:08;21.08;;;18.98;;
16189;SDS011;41754;51.498;7.540;2023-06-22T12:42:37;19.77;;;18.02;;
16189;SDS011;41754;51.498;7.540;2023-06-22T12:45:05;20.63;;;18.73;;
16189;SDS011;41754;51.498;7.540;2023-06-22T12:47:33;20.95;;;19.15;;
16189;SDS011;41754;51.498;7.540;2023-06-22T12:50:01;21.70;;;19.48;;
16189;SDS011;41754;51.498;7.540;2023-06-22T12:52:31;22.20;;;20.00;;
16189;SDS011;41754;51.498;7.540;2023-06-22T12:54:59;18.63;;;16.83;;
16189;SDS011;41754;51.498;7.540;2023-06-22T12:57:27;17.92;;;16.25;;
16189;SDS011;41754;51.498;7.540;2023-06-22T12:59:55;18.92;;;17.17;;
16189;SDS011;41754;51.498;7.540;2023-06-22T13:02:24;18.55;;;16.75;;
16189;SDS011;41754;51.498;7.540;2023-06-22T13:04:53;16.90;;;15.50;;
16189;SDS011;41754;51.498;7.540;2023-06-22T13:07:22;16.70;;;15.18;;
16189;SDS011;41754;51.498;7.540;2023-06-22T13:09:51;17.17;;;15.48;;
16189;SDS011;41754;51.498;7.540;2023-06-22T13:12:19;18.60;;;16.65;;
16189;SDS011;41754;51.498;7.540;2023-06-22T13:14:48;17.42;;;15.82;;
16189;SDS011;41754;51.498;7.540;2023-06-22T13:17:16;17.75;;;16.23;;
16189;SDS011;41754;51.498;7.540;2023-06-22T13:19:43;16.77;;;15.27;;
16189;SDS011;41754;51.498;7.540;2023-06-22T13:22:25;17.75;;;16.00;;
16189;SDS011;41754;51.498;7.540;2023-06-22T13:24:58;16.83;;;15.43;;
16189;SDS011;41754;51.498;7.540;2023-06-22T13:27:27;16.00;;;14.50;;
16189;SDS011;41754;51.498;7.540;2023-06-22T13:29:55;16.17;;;14.93;;
16189;SDS011;41754;51.498;7.540;2023-06-22T13:32:22;17.38;;;15.65;;
16189;SDS011;41754;51.498;7.540;2023-06-22T13:34:51;16.67;;;15.27;;
16189;SDS011;41754;51.498;7.540;2023-06-22T13:37:20;15.57;;;14.20;;
16189;SDS011;41754;51.498;7.540;2023-06-22T13:39:47;16.88;;;15.48;;
16189;SDS011;41754;51.498;7.540;2023-06-22T13:42:16;14.57;;;13.45;;
16189;SDS011;41754;51.498;7.540;2023-06-22T13:44:45;13.90;;;12.75;;
16189;SDS011;41754;51.498;7.540;2023-06-22T13:47:13;13.82;;;12.75;;
16189;SDS011;41754;51.498;7.540;2023-06-22T13:49:40;14.65;;;13.48;;
16189;SDS011;41754;51.498;7.540;2023-06-22T13:52:08;14.15;;;13.05;;
16189;SDS011;41754;51.498;7.540;2023-06-22T13:54:38;14.20;;;13.07;;
16189;SDS011;41754;51.498;7.540;2023-06-22T13:57:06;12.43;;;11.43;;
16189;SDS011;41754;51.498;7.540;2023-06-22T13:59:36;14.25;;;13.15;;
16189;SDS011;41754;51.498;7.540;2023-06-22T14:02:04;14.13;;;13.05;;
16189;SDS011;41754;51.498;7.540;2023-06-22T14:04:32;15.30;;;14.02;;
16189;SDS011;41754;51.498;7.540;2023-06-22T14:07:00;12.88;;;11.77;;
16189;SDS011;41754;51.498;7.540;2023-06-22T14:09:28;12.30;;;11.40;;
16189;SDS011;41754;51.498;7.540;2023-06-22T14:11:56;13.05;;;11.85;;
16189;SDS011;41754;51.498;7.540;2023-06-22T14:14:24;13.05;;;12.05;;
16189;SDS011;41754;51.498;7.540;2023-06-22T14:16:54;13.05;;;11.98;;
16189;SDS011;41754;51.498;7.540;2023-06-22T14:19:22;12.77;;;11.77;;
16189;SDS011;41754;51.498;7.540;2023-06-22T14:21:50;13.52;;;12.30;;
16189;SDS011;41754;51.498;7.540;2023-06-22T14:24:17;13.07;;;11.98;;
16189;SDS011;41754;51.498;7.540;2023-06-22T14:26:49;13.93;;;12.63;;
16189;SDS011;41754;51.498;7.540;2023-06-22T14:29:16;14.00;;;12.63;;
16189;SDS011;41754;51.498;7.540;2023-06-22T14:31:44;12.93;;;11.73;;
16189;SDS011;41754;51.498;7.540;2023-06-22T14:34:15;12.50;;;11.50;;
16189;SDS011;41754;51.498;7.540;2023-06-22T14:36:43;12.30;;;11.40;;
16189;SDS011;41754;51.498;7.540;2023-06-22T14:39:11;12.65;;;11.70;;
16189;SDS011;41754;51.498;7.540;2023-06-22T14:41:38;13.30;;;12.20;;